sensor_id;sensor_type;location;lat;lon;timestamp;P1;durP1;ratioP1;P2;durP2;ratioP2
1128;SDS011;553;51.038;7.216;2022-12-07T00:01:45;87.00;;;41.70;;
1128;SDS011;553;51.038;7.216;2022-12-07T00:04:13;121.60;;;47.30;;
1128;SDS011;553;51.038;7.216;2022-12-07T00:06:42;110.70;;;47.83;;
1128;SDS011;553;51.038;7.216;2022-12-07T00:09:15;117.27;;;49.67;;
1128;SDS011;553;51.038;7.216;2022-12-07T00:11:43;106.53;;;46.47;;
1128;SDS011;553;51.038;7.216;2022-12-07T00:14:11;119.60;;;48.03;;
1128;SDS011;553;51.038;7.216;2022-12-07T00:16:40;117.83;;;51.40;;
1128;SDS011;553;51.038;7.216;2022-12-07T00:19:09;114.97;;;48.13;;
1128;SDS011;553;51.038;7.216;2022-12-07T00:21:37;130.67;;;54.03;;
1128;SDS011;553;51.038;7.216;2022-12-07T00:24:04;114.40;;;47.87;;
1128;SDS011;553;51.038;7.216;2022-12-07T00:26:32;115.20;;;51.27;;
1128;SDS011;553;51.038;7.216;2022-12-07T00:29:06;117.07;;;49.57;;
1128;SDS011;553;51.038;7.216;2022-12-07T00:31:41;104.10;;;48.17;;
1128;SDS011;553;51.038;7.216;2022-12-07T00:34:11;116.20;;;51.10;;
1128;SDS011;553;51.038;7.216;2022-12-07T00:36:43;113.20;;;49.80;;
1128;SDS011;553;51.038;7.216;2022-12-07T00:39:10;113.27;;;49.43;;
1128;SDS011;553;51.038;7.216;2022-12-07T00:41:37;122.20;;;52.90;;
1128;SDS011;553;51.038;7.216;2022-12-07T00:44:03;116.50;;;51.57;;
1128;SDS011;553;51.038;7.216;2022-12-07T00:46:30;105.83;;;51.40;;
1128;SDS011;553;51.038;7.216;2022-12-07T00:48:57;113.47;;;50.60;;
1128;SDS011;553;51.038;7.216;2022-12-07T00:51:24;101.87;;;48.87;;
1128;SDS011;553;51.038;7.216;2022-12-07T00:53:52;104.63;;;47.50;;
1128;SDS011;553;51.038;7.216;2022-12-07T00:56:20;108.03;;;49.80;;
1128;SDS011;553;51.038;7.216;2022-12-07T00:58:52;116.50;;;52.37;;
1128;SDS011;553;51.038;7.216;2022-12-07T01:01:19;122.03;;;54.27;;
1128;SDS011;553;51.038;7.216;2022-12-07T01:03:46;116.07;;;53.10;;
1128;SDS011;553;51.038;7.216;2022-12-07T01:06:17;124.30;;;54.67;;
1128;SDS011;553;51.038;7.216;2022-12-07T01:08:45;124.80;;;55.07;;
1128;SDS011;553;51.038;7.216;2022-12-07T01:11:13;119.27;;;53.17;;
1128;SDS011;553;51.038;7.216;2022-12-07T01:13:42;130.50;;;53.97;;
1128;SDS011;553;51.038;7.216;2022-12-07T01:16:10;112.67;;;54.27;;
1128;SDS011;553;51.038;7.216;2022-12-07T01:18:39;110.13;;;53.30;;
1128;SDS011;553;51.038;7.216;2022-12-07T01:21:11;118.23;;;58.60;;
1128;SDS011;553;51.038;7.216;2022-12-07T01:23:39;118.67;;;57.73;;
1128;SDS011;553;51.038;7.216;2022-12-07T01:26:07;119.67;;;54.90;;
1128;SDS011;553;51.038;7.216;2022-12-07T01:28:37;118.67;;;55.67;;
1128;SDS011;553;51.038;7.216;2022-12-07T01:31:04;114.63;;;53.40;;
1128;SDS011;553;51.038;7.216;2022-12-07T01:33:41;126.10;;;54.77;;
1128;SDS011;553;51.038;7.216;2022-12-07T01:36:14;112.40;;;51.83;;
1128;SDS011;553;51.038;7.216;2022-12-07T01:38:43;110.83;;;52.27;;
1128;SDS011;553;51.038;7.216;2022-12-07T01:41:10;114.80;;;52.07;;
1128;SDS011;553;51.038;7.216;2022-12-07T01:44:06;113.33;;;56.10;;
1128;SDS011;553;51.038;7.216;2022-12-07T01:46:38;110.17;;;50.40;;
1128;SDS011;553;51.038;7.216;2022-12-07T01:49:06;129.13;;;55.47;;
1128;SDS011;553;51.038;7.216;2022-12-07T01:51:38;127.40;;;56.20;;
1128;SDS011;553;51.038;7.216;2022-12-07T01:54:07;127.10;;;53.17;;
1128;SDS011;553;51.038;7.216;2022-12-07T01:56:36;123.93;;;57.60;;
1128;SDS011;553;51.038;7.216;2022-12-07T01:59:04;122.93;;;53.90;;
1128;SDS011;553;51.038;7.216;2022-12-07T02:01:31;134.77;;;60.03;;
1128;SDS011;553;51.038;7.216;2022-12-07T02:03:58;132.97;;;58.10;;
1128;SDS011;553;51.038;7.216;2022-12-07T02:06:25;136.63;;;57.90;;
1128;SDS011;553;51.038;7.216;2022-12-07T02:08:52;138.33;;;60.60;;
1128;SDS011;553;51.038;7.216;2022-12-07T02:11:20;152.83;;;60.97;;
1128;SDS011;553;51.038;7.216;2022-12-07T02:13:47;143.37;;;61.60;;
1128;SDS011;553;51.038;7.216;2022-12-07T02:24:38;130.90;;;57.23;;
1128;SDS011;553;51.038;7.216;2022-12-07T02:30:33;140.20;;;56.50;;
1128;SDS011;553;51.038;7.216;2022-12-07T02:33:17;137.00;;;57.57;;
1128;SDS011;553;51.038;7.216;2022-12-07T02:36:08;124.30;;;55.60;;
1128;SDS011;553;51.038;7.216;2022-12-07T02:38:55;115.23;;;52.03;;
1128;SDS011;553;51.038;7.216;2022-12-07T02:41:31;116.70;;;52.80;;
1128;SDS011;553;51.038;7.216;2022-12-07T02:44:09;131.80;;;52.67;;
1128;SDS011;553;51.038;7.216;2022-12-07T02:46:42;118.70;;;51.80;;
1128;SDS011;553;51.038;7.216;2022-12-07T02:49:14;162.70;;;58.90;;
1128;SDS011;553;51.038;7.216;2022-12-07T02:51:43;157.53;;;58.00;;
1128;SDS011;553;51.038;7.216;2022-12-07T02:54:15;173.63;;;62.67;;
1128;SDS011;553;51.038;7.216;2022-12-07T03:07:05;154.20;;;59.70;;
1128;SDS011;553;51.038;7.216;2022-12-07T03:12:27;172.27;;;60.43;;
1128;SDS011;553;51.038;7.216;2022-12-07T03:15:02;202.93;;;69.10;;
1128;SDS011;553;51.038;7.216;2022-12-07T03:17:34;187.57;;;67.70;;
1128;SDS011;553;51.038;7.216;2022-12-07T03:20:04;161.03;;;60.53;;
1128;SDS011;553;51.038;7.216;2022-12-07T03:22:34;166.83;;;63.57;;
1128;SDS011;553;51.038;7.216;2022-12-07T03:25:04;191.27;;;69.13;;
1128;SDS011;553;51.038;7.216;2022-12-07T03:27:46;161.80;;;63.27;;
1128;SDS011;553;51.038;7.216;2022-12-07T03:30:19;180.00;;;60.50;;
1128;SDS011;553;51.038;7.216;2022-12-07T03:32:53;150.00;;;58.77;;
1128;SDS011;553;51.038;7.216;2022-12-07T03:36:04;170.87;;;65.90;;
1128;SDS011;553;51.038;7.216;2022-12-07T03:38:38;165.07;;;60.63;;
1128;SDS011;553;51.038;7.216;2022-12-07T03:41:15;153.10;;;61.10;;
1128;SDS011;553;51.038;7.216;2022-12-07T03:43:43;155.85;;;61.35;;
1128;SDS011;553;51.038;7.216;2022-12-07T03:48:55;187.10;;;63.37;;
1128;SDS011;553;51.038;7.216;2022-12-07T03:51:40;189.00;;;74.07;;
1128;SDS011;553;51.038;7.216;2022-12-07T03:54:33;175.37;;;64.90;;
1128;SDS011;553;51.038;7.216;2022-12-07T03:57:01;170.57;;;63.15;;
1128;SDS011;553;51.038;7.216;2022-12-07T03:59:30;127.80;;;54.93;;
1128;SDS011;553;51.038;7.216;2022-12-07T04:01:58;127.00;;;55.50;;
1128;SDS011;553;51.038;7.216;2022-12-07T04:04:29;126.27;;;53.30;;
1128;SDS011;553;51.038;7.216;2022-12-07T04:06:56;117.57;;;50.93;;
1128;SDS011;553;51.038;7.216;2022-12-07T04:09:23;109.70;;;49.90;;
1128;SDS011;553;51.038;7.216;2022-12-07T04:11:50;113.27;;;48.77;;
1128;SDS011;553;51.038;7.216;2022-12-07T04:14:17;110.77;;;50.63;;
1128;SDS011;553;51.038;7.216;2022-12-07T04:16:50;112.50;;;51.80;;
1128;SDS011;553;51.038;7.216;2022-12-07T04:19:28;117.53;;;50.50;;
1128;SDS011;553;51.038;7.216;2022-12-07T04:21:57;102.57;;;44.90;;
1128;SDS011;553;51.038;7.216;2022-12-07T04:24:25;114.80;;;47.53;;
1128;SDS011;553;51.038;7.216;2022-12-07T04:26:52;109.67;;;50.00;;
1128;SDS011;553;51.038;7.216;2022-12-07T04:29:20;115.83;;;51.50;;
1128;SDS011;553;51.038;7.216;2022-12-07T04:31:47;111.57;;;52.17;;
1128;SDS011;553;51.038;7.216;2022-12-07T04:34:15;122.87;;;53.30;;
1128;SDS011;553;51.038;7.216;2022-12-07T04:36:42;119.67;;;52.83;;
1128;SDS011;553;51.038;7.216;2022-12-07T04:39:17;128.20;;;54.80;;
1128;SDS011;553;51.038;7.216;2022-12-07T04:41:44;118.83;;;52.77;;
1128;SDS011;553;51.038;7.216;2022-12-07T04:44:11;126.10;;;57.70;;
1128;SDS011;553;51.038;7.216;2022-12-07T04:46:40;118.73;;;56.77;;
1128;SDS011;553;51.038;7.216;2022-12-07T04:49:08;108.27;;;55.00;;
1128;SDS011;553;51.038;7.216;2022-12-07T04:51:36;120.90;;;54.03;;
1128;SDS011;553;51.038;7.216;2022-12-07T04:54:03;112.83;;;53.27;;
1128;SDS011;553;51.038;7.216;2022-12-07T04:56:30;124.33;;;57.33;;
1128;SDS011;553;51.038;7.216;2022-12-07T04:58:57;126.93;;;58.13;;
1128;SDS011;553;51.038;7.216;2022-12-07T05:01:24;117.07;;;55.60;;
1128;SDS011;553;51.038;7.216;2022-12-07T05:03:51;123.13;;;56.13;;
1128;SDS011;553;51.038;7.216;2022-12-07T05:06:18;113.73;;;51.27;;
1128;SDS011;553;51.038;7.216;2022-12-07T05:08:45;104.23;;;50.80;;
1128;SDS011;553;51.038;7.216;2022-12-07T05:11:12;106.53;;;47.60;;
1128;SDS011;553;51.038;7.216;2022-12-07T05:14:00;104.97;;;47.97;;
1128;SDS011;553;51.038;7.216;2022-12-07T05:16:28;94.37;;;46.03;;
1128;SDS011;553;51.038;7.216;2022-12-07T05:18:55;102.17;;;51.70;;
1128;SDS011;553;51.038;7.216;2022-12-07T05:21:21;92.80;;;48.03;;
1128;SDS011;553;51.038;7.216;2022-12-07T05:23:48;90.60;;;44.20;;
1128;SDS011;553;51.038;7.216;2022-12-07T05:26:15;94.90;;;45.13;;
1128;SDS011;553;51.038;7.216;2022-12-07T05:28:42;95.97;;;47.77;;
1128;SDS011;553;51.038;7.216;2022-12-07T05:31:08;93.50;;;45.00;;
1128;SDS011;553;51.038;7.216;2022-12-07T05:33:35;84.10;;;44.97;;
1128;SDS011;553;51.038;7.216;2022-12-07T05:36:02;80.70;;;41.30;;
1128;SDS011;553;51.038;7.216;2022-12-07T05:38:31;75.93;;;41.47;;
1128;SDS011;553;51.038;7.216;2022-12-07T05:41:00;74.10;;;39.70;;
1128;SDS011;553;51.038;7.216;2022-12-07T05:43:29;52.30;;;29.67;;
1128;SDS011;553;51.038;7.216;2022-12-07T05:45:56;63.03;;;36.07;;
1128;SDS011;553;51.038;7.216;2022-12-07T05:48:23;69.20;;;36.55;;
1128;SDS011;553;51.038;7.216;2022-12-07T05:50:50;66.67;;;37.30;;
1128;SDS011;553;51.038;7.216;2022-12-07T05:53:18;72.20;;;39.87;;
1128;SDS011;553;51.038;7.216;2022-12-07T05:55:48;63.07;;;34.30;;
1128;SDS011;553;51.038;7.216;2022-12-07T05:58:15;68.27;;;35.43;;
1128;SDS011;553;51.038;7.216;2022-12-07T06:01:00;63.53;;;36.60;;
1128;SDS011;553;51.038;7.216;2022-12-07T06:03:27;57.83;;;34.83;;
1128;SDS011;553;51.038;7.216;2022-12-07T06:05:54;66.80;;;37.40;;
1128;SDS011;553;51.038;7.216;2022-12-07T06:08:20;68.00;;;35.27;;
1128;SDS011;553;51.038;7.216;2022-12-07T06:10:47;67.13;;;34.50;;
1128;SDS011;553;51.038;7.216;2022-12-07T06:13:34;66.70;;;34.53;;
1128;SDS011;553;51.038;7.216;2022-12-07T06:16:00;66.53;;;37.87;;
1128;SDS011;553;51.038;7.216;2022-12-07T06:18:27;77.63;;;37.97;;
1128;SDS011;553;51.038;7.216;2022-12-07T06:20:54;78.90;;;37.93;;
1128;SDS011;553;51.038;7.216;2022-12-07T06:23:20;73.93;;;38.60;;
1128;SDS011;553;51.038;7.216;2022-12-07T06:25:47;77.97;;;40.93;;
1128;SDS011;553;51.038;7.216;2022-12-07T06:28:13;69.30;;;38.17;;
1128;SDS011;553;51.038;7.216;2022-12-07T06:30:40;72.50;;;38.67;;
1128;SDS011;553;51.038;7.216;2022-12-07T06:33:07;70.47;;;38.10;;
1128;SDS011;553;51.038;7.216;2022-12-07T06:35:33;71.82;;;38.30;;
1128;SDS011;553;51.038;7.216;2022-12-07T06:38:00;76.70;;;40.67;;
1128;SDS011;553;51.038;7.216;2022-12-07T06:40:27;71.30;;;38.33;;
1128;SDS011;553;51.038;7.216;2022-12-07T06:42:53;76.10;;;39.80;;
1128;SDS011;553;51.038;7.216;2022-12-07T06:45:20;75.20;;;40.23;;
1128;SDS011;553;51.038;7.216;2022-12-07T06:47:47;79.77;;;39.83;;
1128;SDS011;553;51.038;7.216;2022-12-07T06:50:14;88.27;;;41.33;;
1128;SDS011;553;51.038;7.216;2022-12-07T06:52:40;79.80;;;41.27;;
1128;SDS011;553;51.038;7.216;2022-12-07T06:55:07;82.63;;;41.25;;
1128;SDS011;553;51.038;7.216;2022-12-07T06:57:34;88.80;;;41.13;;
1128;SDS011;553;51.038;7.216;2022-12-07T07:00:00;75.10;;;42.27;;
1128;SDS011;553;51.038;7.216;2022-12-07T07:02:28;78.57;;;39.57;;
1128;SDS011;553;51.038;7.216;2022-12-07T07:04:55;79.03;;;40.97;;
1128;SDS011;553;51.038;7.216;2022-12-07T07:07:22;71.63;;;40.40;;
1128;SDS011;553;51.038;7.216;2022-12-07T07:09:48;74.60;;;39.53;;
1128;SDS011;553;51.038;7.216;2022-12-07T07:12:15;65.20;;;37.57;;
1128;SDS011;553;51.038;7.216;2022-12-07T07:14:42;68.07;;;38.47;;
1128;SDS011;553;51.038;7.216;2022-12-07T07:17:09;74.73;;;39.20;;
1128;SDS011;553;51.038;7.216;2022-12-07T07:19:36;69.40;;;37.00;;
1128;SDS011;553;51.038;7.216;2022-12-07T07:22:03;72.43;;;36.97;;
1128;SDS011;553;51.038;7.216;2022-12-07T07:24:30;71.63;;;40.57;;
1128;SDS011;553;51.038;7.216;2022-12-07T07:26:57;79.57;;;39.63;;
1128;SDS011;553;51.038;7.216;2022-12-07T07:29:23;74.53;;;40.80;;
1128;SDS011;553;51.038;7.216;2022-12-07T07:31:50;82.97;;;43.47;;
1128;SDS011;553;51.038;7.216;2022-12-07T07:34:17;76.33;;;38.97;;
1128;SDS011;553;51.038;7.216;2022-12-07T07:36:44;73.00;;;38.20;;
1128;SDS011;553;51.038;7.216;2022-12-07T07:39:10;70.93;;;36.77;;
1128;SDS011;553;51.038;7.216;2022-12-07T07:41:38;75.77;;;39.80;;
1128;SDS011;553;51.038;7.216;2022-12-07T07:44:11;75.17;;;37.70;;
1128;SDS011;553;51.038;7.216;2022-12-07T07:46:38;63.47;;;36.23;;
1128;SDS011;553;51.038;7.216;2022-12-07T07:49:05;69.80;;;36.33;;
1128;SDS011;553;51.038;7.216;2022-12-07T07:51:31;69.37;;;35.50;;
1128;SDS011;553;51.038;7.216;2022-12-07T07:53:58;74.13;;;35.93;;
1128;SDS011;553;51.038;7.216;2022-12-07T07:56:25;73.90;;;36.20;;
1128;SDS011;553;51.038;7.216;2022-12-07T07:58:52;68.40;;;37.50;;
1128;SDS011;553;51.038;7.216;2022-12-07T08:01:19;69.57;;;36.20;;
1128;SDS011;553;51.038;7.216;2022-12-07T08:03:46;64.93;;;36.77;;
1128;SDS011;553;51.038;7.216;2022-12-07T08:06:13;62.33;;;36.20;;
1128;SDS011;553;51.038;7.216;2022-12-07T08:08:39;68.00;;;33.63;;
1128;SDS011;553;51.038;7.216;2022-12-07T08:11:07;76.63;;;38.47;;
1128;SDS011;553;51.038;7.216;2022-12-07T08:13:35;63.17;;;34.90;;
1128;SDS011;553;51.038;7.216;2022-12-07T08:16:06;73.50;;;35.53;;
1128;SDS011;553;51.038;7.216;2022-12-07T08:18:38;73.33;;;36.50;;
1128;SDS011;553;51.038;7.216;2022-12-07T08:21:06;71.30;;;39.47;;
1128;SDS011;553;51.038;7.216;2022-12-07T08:23:35;72.13;;;36.13;;
1128;SDS011;553;51.038;7.216;2022-12-07T08:26:12;80.57;;;37.70;;
1128;SDS011;553;51.038;7.216;2022-12-07T08:28:41;70.60;;;34.60;;
1128;SDS011;553;51.038;7.216;2022-12-07T08:31:10;72.30;;;36.25;;
1128;SDS011;553;51.038;7.216;2022-12-07T08:33:39;82.40;;;38.90;;
1128;SDS011;553;51.038;7.216;2022-12-07T08:36:07;70.20;;;39.37;;
1128;SDS011;553;51.038;7.216;2022-12-07T08:38:36;73.47;;;38.50;;
1128;SDS011;553;51.038;7.216;2022-12-07T08:41:04;77.60;;;37.60;;
1128;SDS011;553;51.038;7.216;2022-12-07T08:43:31;75.77;;;37.80;;
1128;SDS011;553;51.038;7.216;2022-12-07T08:48:57;69.53;;;36.60;;
1128;SDS011;553;51.038;7.216;2022-12-07T08:51:29;66.13;;;36.57;;
1128;SDS011;553;51.038;7.216;2022-12-07T08:53:56;74.13;;;38.50;;
1128;SDS011;553;51.038;7.216;2022-12-07T08:56:26;65.10;;;36.80;;
1128;SDS011;553;51.038;7.216;2022-12-07T08:58:53;59.57;;;33.90;;
1128;SDS011;553;51.038;7.216;2022-12-07T09:01:20;62.60;;;33.73;;
1128;SDS011;553;51.038;7.216;2022-12-07T09:03:47;63.93;;;34.20;;
1128;SDS011;553;51.038;7.216;2022-12-07T09:06:14;64.73;;;31.90;;
1128;SDS011;553;51.038;7.216;2022-12-07T09:08:42;63.00;;;35.07;;
1128;SDS011;553;51.038;7.216;2022-12-07T09:11:12;63.97;;;33.30;;
1128;SDS011;553;51.038;7.216;2022-12-07T09:13:39;50.90;;;28.57;;
1128;SDS011;553;51.038;7.216;2022-12-07T09:16:05;50.07;;;28.10;;
1128;SDS011;553;51.038;7.216;2022-12-07T09:18:32;54.20;;;30.10;;
1128;SDS011;553;51.038;7.216;2022-12-07T09:20:59;56.53;;;30.50;;
1128;SDS011;553;51.038;7.216;2022-12-07T09:23:26;55.50;;;31.50;;
1128;SDS011;553;51.038;7.216;2022-12-07T09:25:52;63.43;;;32.90;;
1128;SDS011;553;51.038;7.216;2022-12-07T09:28:19;53.93;;;29.60;;
1128;SDS011;553;51.038;7.216;2022-12-07T09:30:46;52.97;;;28.77;;
1128;SDS011;553;51.038;7.216;2022-12-07T09:33:34;54.17;;;29.70;;
1128;SDS011;553;51.038;7.216;2022-12-07T09:36:01;60.50;;;31.30;;
1128;SDS011;553;51.038;7.216;2022-12-07T09:38:29;58.47;;;32.07;;
1128;SDS011;553;51.038;7.216;2022-12-07T09:40:57;53.17;;;31.07;;
1128;SDS011;553;51.038;7.216;2022-12-07T09:43:24;57.10;;;30.07;;
1128;SDS011;553;51.038;7.216;2022-12-07T09:45:52;51.93;;;30.63;;
1128;SDS011;553;51.038;7.216;2022-12-07T09:48:34;56.50;;;31.07;;
1128;SDS011;553;51.038;7.216;2022-12-07T09:51:03;57.83;;;31.60;;
1128;SDS011;553;51.038;7.216;2022-12-07T09:53:51;51.27;;;30.90;;
1128;SDS011;553;51.038;7.216;2022-12-07T09:56:20;58.93;;;32.20;;
1128;SDS011;553;51.038;7.216;2022-12-07T09:58:48;56.73;;;30.37;;
1128;SDS011;553;51.038;7.216;2022-12-07T10:01:17;59.90;;;33.03;;
1128;SDS011;553;51.038;7.216;2022-12-07T10:03:49;54.50;;;33.97;;
1128;SDS011;553;51.038;7.216;2022-12-07T10:06:18;59.17;;;34.00;;
1128;SDS011;553;51.038;7.216;2022-12-07T10:08:45;58.03;;;31.10;;
1128;SDS011;553;51.038;7.216;2022-12-07T10:11:12;59.80;;;34.00;;
1128;SDS011;553;51.038;7.216;2022-12-07T10:13:42;49.70;;;29.37;;
1128;SDS011;553;51.038;7.216;2022-12-07T10:22:04;56.40;;;33.23;;
1128;SDS011;553;51.038;7.216;2022-12-07T10:24:36;59.10;;;32.53;;
1128;SDS011;553;51.038;7.216;2022-12-07T10:27:20;56.83;;;31.87;;
1128;SDS011;553;51.038;7.216;2022-12-07T10:29:52;52.07;;;29.20;;
1128;SDS011;553;51.038;7.216;2022-12-07T10:34:46;52.60;;;29.30;;
1128;SDS011;553;51.038;7.216;2022-12-07T10:37:18;52.07;;;31.33;;
1128;SDS011;553;51.038;7.216;2022-12-07T10:42:23;57.53;;;30.07;;
1128;SDS011;553;51.038;7.216;2022-12-07T10:45:07;50.07;;;29.63;;
1128;SDS011;553;51.038;7.216;2022-12-07T10:47:46;51.63;;;29.47;;
1128;SDS011;553;51.038;7.216;2022-12-07T10:53:24;46.73;;;29.50;;
1128;SDS011;553;51.038;7.216;2022-12-07T10:58:59;48.03;;;28.40;;
1128;SDS011;553;51.038;7.216;2022-12-07T11:10:05;47.50;;;27.17;;
1128;SDS011;553;51.038;7.216;2022-12-07T11:15:57;40.90;;;25.47;;
1128;SDS011;553;51.038;7.216;2022-12-07T11:18:46;41.90;;;25.70;;
1128;SDS011;553;51.038;7.216;2022-12-07T11:21:52;42.47;;;26.20;;
1128;SDS011;553;51.038;7.216;2022-12-07T11:24:44;48.20;;;27.87;;
1128;SDS011;553;51.038;7.216;2022-12-07T11:27:27;37.23;;;24.00;;
1128;SDS011;553;51.038;7.216;2022-12-07T11:30:00;39.53;;;23.90;;
1128;SDS011;553;51.038;7.216;2022-12-07T11:32:44;38.63;;;22.50;;
1128;SDS011;553;51.038;7.216;2022-12-07T11:35:30;43.37;;;25.97;;
1128;SDS011;553;51.038;7.216;2022-12-07T11:40:40;42.27;;;25.40;;
1128;SDS011;553;51.038;7.216;2022-12-07T11:43:20;44.97;;;27.27;;
1128;SDS011;553;51.038;7.216;2022-12-07T11:45:55;48.13;;;27.27;;
1128;SDS011;553;51.038;7.216;2022-12-07T11:48:41;34.87;;;21.73;;
1128;SDS011;553;51.038;7.216;2022-12-07T11:51:12;38.33;;;22.37;;
1128;SDS011;553;51.038;7.216;2022-12-07T11:53:42;37.83;;;22.17;;
1128;SDS011;553;51.038;7.216;2022-12-07T11:56:16;40.53;;;22.07;;
1128;SDS011;553;51.038;7.216;2022-12-07T11:58:53;34.57;;;20.77;;
1128;SDS011;553;51.038;7.216;2022-12-07T12:06:39;30.40;;;19.13;;
1128;SDS011;553;51.038;7.216;2022-12-07T12:09:17;32.30;;;21.07;;
1128;SDS011;553;51.038;7.216;2022-12-07T12:12:15;35.70;;;22.17;;
1128;SDS011;553;51.038;7.216;2022-12-07T12:18:18;39.07;;;21.10;;
1128;SDS011;553;51.038;7.216;2022-12-07T12:21:01;36.20;;;22.17;;
1128;SDS011;553;51.038;7.216;2022-12-07T12:23:44;39.93;;;23.13;;
1128;SDS011;553;51.038;7.216;2022-12-07T12:26:18;37.87;;;22.73;;
1128;SDS011;553;51.038;7.216;2022-12-07T12:28:56;34.20;;;20.70;;
1128;SDS011;553;51.038;7.216;2022-12-07T12:31:38;39.23;;;21.17;;
1128;SDS011;553;51.038;7.216;2022-12-07T12:36:56;30.57;;;18.53;;
1128;SDS011;553;51.038;7.216;2022-12-07T12:39:23;27.67;;;17.70;;
1128;SDS011;553;51.038;7.216;2022-12-07T12:41:52;32.03;;;19.67;;
1128;SDS011;553;51.038;7.216;2022-12-07T12:46:52;30.83;;;19.33;;
1128;SDS011;553;51.038;7.216;2022-12-07T12:51:55;27.63;;;18.27;;
1128;SDS011;553;51.038;7.216;2022-12-07T12:54:30;25.40;;;17.13;;
1128;SDS011;553;51.038;7.216;2022-12-07T13:05:16;27.77;;;17.63;;
1128;SDS011;553;51.038;7.216;2022-12-07T13:07:56;22.37;;;14.80;;
1128;SDS011;553;51.038;7.216;2022-12-07T13:12:56;23.07;;;13.10;;
1128;SDS011;553;51.038;7.216;2022-12-07T13:15:40;18.20;;;12.00;;
1128;SDS011;553;51.038;7.216;2022-12-07T13:23:37;22.23;;;11.97;;
1128;SDS011;553;51.038;7.216;2022-12-07T13:29:04;18.60;;;9.40;;
1128;SDS011;553;51.038;7.216;2022-12-07T13:31:52;16.60;;;8.77;;
1128;SDS011;553;51.038;7.216;2022-12-07T13:34:31;18.90;;;9.43;;
1128;SDS011;553;51.038;7.216;2022-12-07T13:37:12;20.10;;;10.90;;
1128;SDS011;553;51.038;7.216;2022-12-07T13:39:54;14.80;;;9.70;;
1128;SDS011;553;51.038;7.216;2022-12-07T13:42:32;15.30;;;9.00;;
1128;SDS011;553;51.038;7.216;2022-12-07T13:45:16;15.47;;;9.00;;
1128;SDS011;553;51.038;7.216;2022-12-07T13:47:48;20.17;;;9.00;;
1128;SDS011;553;51.038;7.216;2022-12-07T13:50:24;13.23;;;8.07;;
1128;SDS011;553;51.038;7.216;2022-12-07T13:53:07;22.33;;;11.03;;
1128;SDS011;553;51.038;7.216;2022-12-07T13:55:38;19.70;;;10.67;;
1128;SDS011;553;51.038;7.216;2022-12-07T13:58:19;17.77;;;9.43;;
1128;SDS011;553;51.038;7.216;2022-12-07T14:00:45;22.50;;;11.33;;
1128;SDS011;553;51.038;7.216;2022-12-07T14:05:40;19.27;;;9.63;;
1128;SDS011;553;51.038;7.216;2022-12-07T14:10:41;19.10;;;11.87;;
1128;SDS011;553;51.038;7.216;2022-12-07T14:13:27;19.27;;;11.70;;
1128;SDS011;553;51.038;7.216;2022-12-07T14:15:55;21.43;;;10.97;;
1128;SDS011;553;51.038;7.216;2022-12-07T14:23:37;20.20;;;12.33;;
1128;SDS011;553;51.038;7.216;2022-12-07T14:26:11;15.77;;;11.20;;
1128;SDS011;553;51.038;7.216;2022-12-07T14:28:44;18.60;;;11.57;;
1128;SDS011;553;51.038;7.216;2022-12-07T14:31:12;26.70;;;12.87;;
1128;SDS011;553;51.038;7.216;2022-12-07T14:33:51;24.40;;;13.17;;
1128;SDS011;553;51.038;7.216;2022-12-07T14:36:18;19.07;;;11.60;;
1128;SDS011;553;51.038;7.216;2022-12-07T14:38:44;30.43;;;13.97;;
1128;SDS011;553;51.038;7.216;2022-12-07T14:41:15;24.90;;;12.23;;
1128;SDS011;553;51.038;7.216;2022-12-07T14:44:16;25.50;;;11.67;;
1128;SDS011;553;51.038;7.216;2022-12-07T14:46:49;26.00;;;13.37;;
1128;SDS011;553;51.038;7.216;2022-12-07T14:49:37;22.27;;;13.13;;
1128;SDS011;553;51.038;7.216;2022-12-07T14:52:03;25.70;;;12.70;;
1128;SDS011;553;51.038;7.216;2022-12-07T14:54:52;21.03;;;12.57;;
1128;SDS011;553;51.038;7.216;2022-12-07T14:57:19;24.37;;;13.13;;
1128;SDS011;553;51.038;7.216;2022-12-07T14:59:46;26.17;;;12.30;;
1128;SDS011;553;51.038;7.216;2022-12-07T15:02:13;26.50;;;12.90;;
1128;SDS011;553;51.038;7.216;2022-12-07T15:04:40;23.70;;;12.87;;
1128;SDS011;553;51.038;7.216;2022-12-07T15:07:14;18.70;;;12.30;;
1128;SDS011;553;51.038;7.216;2022-12-07T15:09:46;28.77;;;12.97;;
1128;SDS011;553;51.038;7.216;2022-12-07T15:12:13;22.00;;;12.93;;
1128;SDS011;553;51.038;7.216;2022-12-07T15:14:40;20.90;;;12.13;;
1128;SDS011;553;51.038;7.216;2022-12-07T15:17:08;25.00;;;12.73;;
1128;SDS011;553;51.038;7.216;2022-12-07T15:19:48;21.77;;;11.10;;
1128;SDS011;553;51.038;7.216;2022-12-07T15:22:15;21.30;;;12.63;;
1128;SDS011;553;51.038;7.216;2022-12-07T15:24:41;18.60;;;11.43;;
1128;SDS011;553;51.038;7.216;2022-12-07T15:27:08;21.40;;;10.67;;
1128;SDS011;553;51.038;7.216;2022-12-07T15:29:35;22.07;;;14.17;;
1128;SDS011;553;51.038;7.216;2022-12-07T15:32:01;23.30;;;13.40;;
1128;SDS011;553;51.038;7.216;2022-12-07T15:34:28;20.27;;;12.30;;
1128;SDS011;553;51.038;7.216;2022-12-07T15:37:05;19.13;;;11.73;;
1128;SDS011;553;51.038;7.216;2022-12-07T15:39:32;27.97;;;14.60;;
1128;SDS011;553;51.038;7.216;2022-12-07T15:41:59;19.50;;;13.40;;
1128;SDS011;553;51.038;7.216;2022-12-07T15:44:26;37.43;;;18.67;;
1128;SDS011;553;51.038;7.216;2022-12-07T15:47:11;30.47;;;13.50;;
1128;SDS011;553;51.038;7.216;2022-12-07T15:49:38;28.00;;;16.17;;
1128;SDS011;553;51.038;7.216;2022-12-07T15:52:05;27.03;;;14.43;;
1128;SDS011;553;51.038;7.216;2022-12-07T15:54:31;24.17;;;15.07;;
1128;SDS011;553;51.038;7.216;2022-12-07T15:56:59;29.23;;;15.50;;
1128;SDS011;553;51.038;7.216;2022-12-07T15:59:26;26.80;;;16.60;;
1128;SDS011;553;51.038;7.216;2022-12-07T16:01:54;24.27;;;15.90;;
1128;SDS011;553;51.038;7.216;2022-12-07T16:04:21;23.07;;;15.40;;
1128;SDS011;553;51.038;7.216;2022-12-07T16:06:48;23.70;;;15.03;;
1128;SDS011;553;51.038;7.216;2022-12-07T16:09:17;30.97;;;17.83;;
1128;SDS011;553;51.038;7.216;2022-12-07T16:11:44;44.17;;;27.80;;
1128;SDS011;553;51.038;7.216;2022-12-07T16:14:10;40.17;;;25.10;;
1128;SDS011;553;51.038;7.216;2022-12-07T16:16:37;36.20;;;20.40;;
1128;SDS011;553;51.038;7.216;2022-12-07T16:19:06;31.80;;;17.77;;
1128;SDS011;553;51.038;7.216;2022-12-07T16:21:34;40.03;;;26.00;;
1128;SDS011;553;51.038;7.216;2022-12-07T16:24:01;52.03;;;30.50;;
1128;SDS011;553;51.038;7.216;2022-12-07T16:26:29;31.50;;;19.87;;
1128;SDS011;553;51.038;7.216;2022-12-07T16:28:55;29.90;;;17.10;;
1128;SDS011;553;51.038;7.216;2022-12-07T16:31:23;26.17;;;16.13;;
1128;SDS011;553;51.038;7.216;2022-12-07T16:33:56;25.70;;;15.53;;
1128;SDS011;553;51.038;7.216;2022-12-07T16:36:24;30.77;;;15.20;;
1128;SDS011;553;51.038;7.216;2022-12-07T16:39:13;24.63;;;14.53;;
1128;SDS011;553;51.038;7.216;2022-12-07T16:41:40;19.73;;;12.93;;
1128;SDS011;553;51.038;7.216;2022-12-07T16:44:07;24.27;;;14.80;;
1128;SDS011;553;51.038;7.216;2022-12-07T16:46:36;19.60;;;14.00;;
1128;SDS011;553;51.038;7.216;2022-12-07T16:49:03;20.47;;;13.17;;
1128;SDS011;553;51.038;7.216;2022-12-07T16:51:30;21.53;;;13.33;;
1128;SDS011;553;51.038;7.216;2022-12-07T16:53:57;20.37;;;12.60;;
1128;SDS011;553;51.038;7.216;2022-12-07T16:56:24;19.47;;;11.90;;
1128;SDS011;553;51.038;7.216;2022-12-07T16:58:52;15.13;;;11.53;;
1128;SDS011;553;51.038;7.216;2022-12-07T17:01:19;15.83;;;11.60;;
1128;SDS011;553;51.038;7.216;2022-12-07T17:03:49;19.20;;;13.23;;
1128;SDS011;553;51.038;7.216;2022-12-07T17:06:17;27.63;;;19.37;;
1128;SDS011;553;51.038;7.216;2022-12-07T17:08:45;25.30;;;19.00;;